M I D A S
Marine Information and Data Acquisition System
Tripno 200 of the Zeeleeuw from 2002-01-18 05:26:21 to 2002-01-18 14:59:22
Back to CruiseResearch ActivitiesStationsMapUnderway DataData graphs

EquipmentUnitsComment
TimeDGPSUTC
LatitudeDGPSDM.mWGS84
LongitudeDGPSDM.mWGS84
HeadingGyrodeg 
SOGDGPSknotsSpeed over ground
COGDGPSdegCourse over ground
DepthEcho soundermeters200 kHz
Missing or incorrect values are displayed as -999
Navigation data collected by the RV Zeeleeuw from 2002-01-18 05:26:21 to 2002-01-18 14:59:22
Time Latitude Longitude Heading SOG COG Depth
2002-01-18 05:27:26 51°13.686 2°55.904 104.7 0.1 210.9 9.2
2002-01-18 05:28:26 51°13.683 2°55.903 96.5 0.1 221.7 9.5
2002-01-18 05:29:27 51°13.686 2°55.886 94.8 2.1 275.5 -999
2002-01-18 05:30:27 51°13.687 2°55.802 85.5 3.2 265.9 11.3
2002-01-18 05:31:26 51°13.682 2°55.735 76.7 1.9 261.7 13.3
2002-01-18 05:32:26 51°13.728 2°55.736 342.8 5.5 342.5 12.1
2002-01-18 05:33:27 51°13.848 2°55.625 336.3 9.2 332.8 11.3
2002-01-18 05:34:26 51°13.994 2°55.518 339.3 9.6 335.7 11.5
2002-01-18 05:35:26 51°14.106 2°55.434 337.2 6.8 333.7 11.9
2002-01-18 05:36:27 51°14.215 2°55.333 327 7.8 324.6 11.7
2002-01-18 05:37:27 51°14.304 2°55.173 309.8 8.3 306.5 12.1
2002-01-18 05:38:26 51°14.393 2°54.993 314.3 9.6 309.1 11.8
2002-01-18 05:39:26 51°14.53 2°54.79 324.8 12 321 11.3
2002-01-18 05:40:26 51°14.692 2°54.601 327.3 12.1 325 11.1
2002-01-18 05:41:26 51°14.858 2°54.421 327.5 11.9 325.9 10.9
2002-01-18 05:42:26 51°15.026 2°54.249 331.3 12.1 329.1 10.2
2002-01-18 05:43:26 51°15.204 2°54.078 330.8 12.6 327.9 10.7
2002-01-18 05:44:26 51°15.391 2°53.889 330.5 13.6 327.3 11.3
2002-01-18 05:45:26 51°15.583 2°53.691 330.5 13.8 327.8 12.2
2002-01-18 05:46:26 51°15.778 2°53.492 330.2 13.9 327.1 12.9
2002-01-18 05:47:26 51°15.978 2°53.307 333.2 13.9 330.2 13.2
2002-01-18 05:48:27 51°16.183 2°53.123 332.5 14 329.9 13.7
2002-01-18 05:49:27 51°16.392 2°52.959 336.2 14 335 13.7
2002-01-18 05:50:27 51°16.609 2°52.822 339.2 14 337.7 13
2002-01-18 05:51:27 51°16.824 2°52.683 337.8 13.9 337 11.1
2002-01-18 05:52:27 51°17.037 2°52.538 339.7 14 338.2 10.9
2002-01-18 05:53:27 51°17.251 2°52.394 341.3 13.9 339 11.6
2002-01-18 05:54:27 51°17.468 2°52.268 343.8 13.9 340.8 11.9
2002-01-18 05:55:26 51°17.682 2°52.145 343.2 14 340.4 11.8
2002-01-18 05:56:27 51°17.907 2°52.022 344.3 14.1 341.2 11.8
2002-01-18 05:57:28 51°18.134 2°51.904 345.3 14.1 342.4 -999
2002-01-18 05:58:27 51°18.35 2°51.783 344.8 14 340.6 13.1
2002-01-18 05:59:27 51°18.57 2°51.661 343.2 13.9 340 14.4
2002-01-18 06:00:25 51°18.784 2°51.561 345.7 13.9 342.9 15.5
2002-01-18 06:01:26 51°19.007 2°51.451 345 13.8 342.5 16
2002-01-18 06:02:26 51°19.23 2°51.342 345.5 14.2 343.1 16.4
2002-01-18 06:03:26 51°19.456 2°51.236 346.3 14.1 344 16.3
2002-01-18 06:04:27 51°19.687 2°51.144 351.7 14 347.7 15.2
2002-01-18 06:05:27 51°19.913 2°51.056 349 14 344.8 13.6
2002-01-18 06:06:27 51°20.139 2°50.966 348.5 14 346.1 15.4
2002-01-18 06:07:26 51°20.361 2°50.88 347.3 14 345.9 15.3
2002-01-18 06:08:26 51°20.587 2°50.795 349.5 14 347.5 19
2002-01-18 06:09:27 51°20.816 2°50.707 350.5 13.9 347.1 22.1
2002-01-18 06:10:27 51°21.014 2°50.54 315.5 13.5 316.3 24.4
2002-01-18 06:11:27 51°21.16 2°50.263 307.5 13.6 308 24.7
2002-01-18 06:12:27 51°21.301 2°49.981 311.3 13.7 310.1 24.1
2002-01-18 06:13:26 51°21.447 2°49.708 313 13.8 312.1 23.1
2002-01-18 06:14:27 51°21.621 2°49.465 327.8 13.8 326 23.7
2002-01-18 06:15:25 51°21.82 2°49.311 340.2 13.8 339.9 24.4
2002-01-18 06:16:27 51°22.042 2°49.179 341.3 13.7 340.6 24.5
2002-01-18 06:17:27 51°22.263 2°49.075 344.8 13.8 344.3 23
2002-01-18 06:18:26 51°22.479 2°48.968 341.8 13.8 341.1 19.8
2002-01-18 06:19:27 51°22.71 2°48.89 351 14.1 349.6 15.1
2002-01-18 06:20:26 51°22.94 2°48.836 350.8 14.2 350.3 19.5
2002-01-18 06:21:26 51°23.172 2°48.771 353.5 14.2 351.7 21.4
2002-01-18 06:22:26 51°23.404 2°48.702 351.8 14.1 348.8 22.7
2002-01-18 06:23:28 51°23.646 2°48.672 0.2 14.2 356.5 23.7
2002-01-18 06:24:26 51°23.872 2°48.642 356.3 14.1 354 23.9
2002-01-18 06:25:26 51°24.108 2°48.609 358.3 14.2 355.8 22.7
2002-01-18 06:26:26 51°24.342 2°48.575 358.7 14.2 354.6 22.8
2002-01-18 06:27:26 51°24.578 2°48.547 356.8 14.2 354.4 23.5
2002-01-18 06:28:26 51°24.815 2°48.521 359 14.3 356.7 26.7
2002-01-18 06:29:26 51°25.039 2°48.5 0.5 11.9 357.6 28.4
2002-01-18 06:30:27 51°25.227 2°48.482 359.3 10.9 356.6 30.4
2002-01-18 06:31:27 51°25.405 2°48.465 359.2 10.7 356.9 30.1
2002-01-18 06:32:26 51°25.58 2°48.449 358.2 10.7 356.7 24.7
2002-01-18 06:33:26 51°25.755 2°48.435 359.8 9.6 357.6 24.7
2002-01-18 06:34:27 51°25.883 2°48.44 2.7 6.4 2.3 24.4
2002-01-18 06:35:26 51°25.968 2°48.436 350.3 4.6 353.9 24.4
2002-01-18 06:36:27 51°26.034 2°48.42 343 3.6 349.5 23.6
2002-01-18 06:37:27 51°26.088 2°48.4 337.3 3.1 345.4 23.5
2002-01-18 06:38:27 51°26.135 2°48.378 332.5 2.8 344 23.6
2002-01-18 06:39:27 51°26.174 2°48.364 339.7 2.2 350.4 22.9
2002-01-18 06:40:26 51°26.207 2°48.36 348.7 1.9 358.6 23.5
2002-01-18 06:41:26 51°26.237 2°48.363 359.2 1.8 9.5 21.2
2002-01-18 06:42:27 51°26.265 2°48.373 8.2 1.6 15.7 21.5
2002-01-18 06:43:26 51°26.29 2°48.386 12.8 1.6 18.4 19.9
2002-01-18 06:44:27 51°26.313 2°48.4 15 1.5 21 21.5
2002-01-18 06:45:27 51°26.335 2°48.412 12.8 1.4 19.7 21.9
2002-01-18 06:46:27 51°26.356 2°48.423 13.5 1.3 19.3 20.4
2002-01-18 06:47:27 51°26.376 2°48.435 16 1.3 19.8 18.3
2002-01-18 06:48:27 51°26.396 2°48.447 16.5 1.3 22.3 20.9
2002-01-18 06:49:27 51°26.421 2°48.464 30.2 1.9 24.3 22.3
2002-01-18 06:50:27 51°26.448 2°48.495 59 2.1 44.1 21.7
2002-01-18 06:51:27 51°26.465 2°48.542 94.3 2 72.6 22.7
2002-01-18 06:52:27 51°26.464 2°48.588 131 1.6 104.9 20.7
2002-01-18 06:53:27 51°26.45 2°48.618 166.5 1.3 143.1 21.3
2002-01-18 06:54:27 51°26.432 2°48.625 194.8 1.1 181.2 21.7
2002-01-18 06:55:27 51°26.413 2°48.625 183.3 1.3 174 21.3
2002-01-18 06:56:27 51°26.387 2°48.63 184.3 1.7 174.8 20.6
2002-01-18 06:57:27 51°26.359 2°48.629 192.3 1.7 185.9 19.6
2002-01-18 06:58:27 51°26.331 2°48.62 197.5 1.7 193.2 20.6
2002-01-18 06:59:27 51°26.302 2°48.611 195.2 1.8 189.8 22.5
2002-01-18 07:00:27 51°26.272 2°48.601 199 1.9 194.7 23.2
2002-01-18 07:01:27 51°26.244 2°48.587 202.8 1.7 198.2 22.2
2002-01-18 07:02:27 51°26.218 2°48.574 201.3 1.6 197.4 23.9
2002-01-18 07:03:27 51°26.193 2°48.564 197.2 1.6 192 22.8
2002-01-18 07:04:27 51°26.166 2°48.552 201.8 1.6 197.7 24
2002-01-18 07:05:27 51°26.141 2°48.54 200.2 1.6 195.3 23.5
2002-01-18 07:06:27 51°26.115 2°48.526 202.7 1.6 199.8 24.3
2002-01-18 07:07:27 51°26.091 2°48.512 202.8 1.7 199.9 23.8
2002-01-18 07:08:27 51°26.066 2°48.497 201.8 1.6 199.6 24
2002-01-18 07:09:27 51°26.041 2°48.483 199.7 1.6 197.4 24
2002-01-18 07:10:26 51°26.016 2°48.47 203.2 1.6 201.1 24.2
2002-01-18 07:11:26 51°25.993 2°48.454 206 1.3 204 24
2002-01-18 07:12:26 51°25.976 2°48.442 208.2 0.9 206.5 24.2
2002-01-18 07:13:26 51°25.965 2°48.432 210.3 0.7 208.5 24
2002-01-18 07:14:27 51°25.956 2°48.425 208.7 0.5 205.7 23.9
2002-01-18 07:15:27 51°25.95 2°48.422 203.2 0.3 196.5 23.9
2002-01-18 07:16:27 51°25.945 2°48.42 199.8 0.3 186.7 23.8
2002-01-18 07:17:27 51°25.941 2°48.42 195 0.2 188.8 24.1
2002-01-18 07:18:27 51°25.938 2°48.42 192.8 0.2 161.3 24
2002-01-18 07:19:27 51°25.934 2°48.421 192.8 0.2 168.5 24
2002-01-18 07:20:27 51°25.931 2°48.421 195.8 0.2 180.2 23.9
2002-01-18 07:21:26 51°25.927 2°48.422 198.5 0.2 192.8 23.9
2002-01-18 07:22:27 51°25.923 2°48.42 200.8 0.2 196.4 23.8
2002-01-18 07:23:27 51°25.92 2°48.417 202.3 0.2 203.5 23.9
2002-01-18 07:24:27 51°25.918 2°48.416 203 0.2 202.2 23.9
2002-01-18 07:25:27 51°25.915 2°48.412 203.7 0.2 204.8 24
2002-01-18 07:26:27 51°25.913 2°48.41 204.5 0.2 212 24
2002-01-18 07:27:27 51°25.91 2°48.407 206.2 0.2 220.9 23.9
2002-01-18 07:28:27 51°25.907 2°48.403 207.8 0.2 229.5 23.9
2002-01-18 07:29:26 51°25.905 2°48.399 209 0.2 222.2 24
2002-01-18 07:30:27 51°25.902 2°48.395 207.3 0.2 229.5 23.9
2002-01-18 07:31:27 51°25.9 2°48.393 203.5 0.2 205.8 23.9
2002-01-18 07:32:27 51°25.898 2°48.391 203.2 0.2 206 23.8
2002-01-18 07:33:27 51°25.896 2°48.389 202 0.2 209.2 24
2002-01-18 07:34:27 51°25.893 2°48.385 200.7 0.2 211.2 23.9
2002-01-18 07:35:27 51°25.889 2°48.381 197.3 0.4 201.1 23.8
2002-01-18 07:36:27 51°25.873 2°48.378 166.3 1.3 173.6 23.9
2002-01-18 07:37:27 51°25.854 2°48.4 124 1.6 127 23.8
2002-01-18 07:38:27 51°25.851 2°48.442 78.7 1.7 75.4 23.7
2002-01-18 07:39:27 51°25.873 2°48.477 36.7 2 29.6 23.7
2002-01-18 07:40:27 51°25.911 2°48.499 23.8 2.7 15.6 23.7
2002-01-18 07:41:27 51°25.952 2°48.512 16.3 2.3 8.8 23.9
2002-01-18 07:42:27 51°25.985 2°48.516 11.8 1.8 3.6 23.7
2002-01-18 07:43:27 51°26.012 2°48.516 9 1.5 359 23.6
2002-01-18 07:44:26 51°26.035 2°48.513 5.5 1.3 353.2 23.7
2002-01-18 07:45:27 51°26.056 2°48.509 2.2 1.2 351.5 23.7
2002-01-18 07:46:27 51°26.073 2°48.503 358 1 347.2 23
2002-01-18 07:47:27 51°26.086 2°48.497 355.5 0.7 340.5 22.8
2002-01-18 07:48:27 51°26.105 2°48.492 8.3 2.7 358.6 23.7
2002-01-18 07:49:27 51°26.13 2°48.588 119 4.9 112.8 22.5
2002-01-18 07:50:27 51°26.057 2°48.594 218.2 5.2 216.6 23.8
2002-01-18 07:51:27 51°26.001 2°48.465 233.5 6.1 234.4 23.6
2002-01-18 07:52:28 51°25.984 2°48.426 270.8 0.7 105 -999
2002-01-18 07:53:26 51°25.982 2°48.43 271.5 1.2 263.2 23.5
2002-01-18 07:54:27 51°25.981 2°48.409 288.8 0.2 165.3 23.4
2002-01-18 07:55:28 51°25.983 2°48.41 328.3 3.1 316.5 -999
2002-01-18 07:56:28 51°26.025 2°48.391 21.3 0.7 326.1 23.4
2002-01-18 07:57:27 51°26.036 2°48.398 62.2 3 47.8 22.7
2002-01-18 07:58:27 51°26.049 2°48.449 86.5 1.7 77.5 23.6
2002-01-18 07:59:27 51°26.052 2°48.474 97.2 0.6 82.9 23.5
2002-01-18 08:00:27 51°26.052 2°48.492 97.7 0.6 91.1 23.4
2002-01-18 08:01:27 51°26.051 2°48.508 92.3 0.6 90.8 23.4
2002-01-18 08:02:27 51°26.052 2°48.523 86.8 0.6 83.6 23.6
2002-01-18 08:03:28 51°26.054 2°48.537 79.7 0.5 68.3 23.4
2002-01-18 08:04:27 51°26.057 2°48.547 73 0.4 62.3 23.5
2002-01-18 08:05:27 51°26.061 2°48.557 64.2 0.4 53.3 23.6
2002-01-18 08:06:27 51°26.065 2°48.564 55.7 0.4 40 23
2002-01-18 08:07:27 51°26.071 2°48.569 47 0.4 16.6 22.3
2002-01-18 08:08:27 51°26.078 2°48.57 35.8 0.4 2.4 23.5
2002-01-18 08:09:28 51°26.085 2°48.568 26.2 0.4 347.6 23.5
2002-01-18 08:10:27 51°26.091 2°48.565 18.7 0.4 330.7 23.6
2002-01-18 08:11:27 51°26.096 2°48.558 12.3 0.4 321.1 23.3
2002-01-18 08:12:27 51°26.102 2°48.551 7 0.4 314.6 23.4
2002-01-18 08:13:27 51°26.106 2°48.543 5.3 0.4 311.3 23.3
2002-01-18 08:14:27 51°26.11 2°48.535 4.3 0.4 303.8 23.2
2002-01-18 08:15:27 51°26.114 2°48.525 2.8 0.5 306.8 23.2
2002-01-18 08:16:27 51°26.118 2°48.515 2.2 0.4 301.9 23.5
2002-01-18 08:17:27 51°26.121 2°48.506 1.2 0.4 296.4 23.1
2002-01-18 08:18:27 51°26.124 2°48.495 0.8 0.4 295.4 23.3
2002-01-18 08:19:27 51°26.127 2°48.485 0.7 0.4 296.7 23.1
2002-01-18 08:20:27 51°26.131 2°48.474 357.8 0.5 294.6 22.9
2002-01-18 08:21:27 51°26.134 2°48.464 354.5 0.5 294 22.1
2002-01-18 08:22:28 51°26.138 2°48.451 350.8 0.5 300.2 21.1
2002-01-18 08:23:27 51°26.142 2°48.439 350.5 0.5 300.8 20.6
2002-01-18 08:24:27 51°26.145 2°48.426 349.5 0.5 295.4 20.5
2002-01-18 08:25:28 51°26.148 2°48.413 349.2 0.6 286.5 20.4
2002-01-18 08:26:28 51°26.151 2°48.399 349.8 0.5 288.1 20.3
2002-01-18 08:27:27 51°26.181 2°48.4 45.3 2.8 29 22.4
2002-01-18 08:28:26 51°26.195 2°48.502 87 6.5 83.6 22
2002-01-18 08:29:26 51°26.221 2°48.746 81.3 10.2 78.6 23.6
2002-01-18 08:30:25 51°26.251 2°48.995 82.2 9.1 79.1 23.2
2002-01-18 08:31:27 51°26.281 2°49.234 81.5 8.8 79 23.1
2002-01-18 08:32:27 51°26.308 2°49.462 82.7 8.7 79.5 22.7
2002-01-18 08:33:26 51°26.337 2°49.686 82.2 8.7 79 22.8
2002-01-18 08:34:27 51°26.366 2°49.918 81.8 8.7 78.6 22.6
2002-01-18 08:35:27 51°26.393 2°50.145 81.8 8.6 79.6 22.7
2002-01-18 08:36:27 51°26.42 2°50.371 82 8.7 79.7 22.8
2002-01-18 08:37:25 51°26.447 2°50.59 81.7 8.7 78.2 23.2
2002-01-18 08:38:27 51°26.479 2°50.825 82 8.8 77 22.8
2002-01-18 08:39:27 51°26.51 2°51.054 82 8.8 77.7 25.6
2002-01-18 08:40:26 51°26.542 2°51.279 82.5 8.8 78 25.6
2002-01-18 08:41:28 51°26.574 2°51.514 81.7 8.7 77.9 25.1
2002-01-18 08:42:27 51°26.604 2°51.736 82.2 8.6 78.1 25.3
2002-01-18 08:43:27 51°26.633 2°51.962 81.8 8.7 78.4 27.3
2002-01-18 08:44:26 51°26.664 2°52.185 81.8 8.8 78 27.3
2002-01-18 08:45:25 51°26.694 2°52.41 81.5 8.8 78.3 27
2002-01-18 08:46:27 51°26.724 2°52.647 81.7 8.8 78.4 27.7
2002-01-18 08:47:27 51°26.756 2°52.876 82.3 8.8 77.6 27.8
2002-01-18 08:48:28 51°26.787 2°53.11 82 8.9 78.4 28.5
2002-01-18 08:49:27 51°26.816 2°53.34 82.7 8.9 79 27.9
2002-01-18 08:50:27 51°26.845 2°53.57 82 8.7 79.3 26.3
2002-01-18 08:51:27 51°26.871 2°53.798 81.7 8.7 79.3 25.9
2002-01-18 08:52:27 51°26.898 2°54.022 81.8 8.5 79.8 23.8
2002-01-18 08:53:27 51°26.922 2°54.246 81.7 8.5 80.9 23.1
2002-01-18 08:54:27 51°26.946 2°54.468 81.7 8.5 80.2 25.3
2002-01-18 08:55:27 51°26.97 2°54.694 81.7 8.7 80.4 27.5
2002-01-18 08:56:28 51°26.995 2°54.927 81.8 8.7 80.5 26.8
2002-01-18 08:57:27 51°27.02 2°55.152 82.3 8.8 80.8 26.9
2002-01-18 08:58:27 51°27.049 2°55.382 80.8 8.8 78.7 28.1
2002-01-18 08:59:27 51°27.075 2°55.61 80.8 8.5 79.6 29.1
2002-01-18 09:00:28 51°27.102 2°55.831 81.3 8.3 79.2 29.5
2002-01-18 09:01:27 51°27.128 2°56.043 81.2 8.2 79.7 27.8
2002-01-18 09:02:28 51°27.155 2°56.262 81 8.3 79.4 26.3
2002-01-18 09:03:28 51°27.181 2°56.477 81 8.2 78.9 24.3
2002-01-18 09:04:28 51°27.209 2°56.689 80.7 8.1 77.2 20.1
2002-01-18 09:05:28 51°27.236 2°56.899 80.8 8 78.5 22.4
2002-01-18 09:06:27 51°27.263 2°57.105 81.2 8 78.5 24.8
2002-01-18 09:07:27 51°27.29 2°57.314 81 8 78.8 24.4
2002-01-18 09:08:27 51°27.316 2°57.523 81 8 78.7 23.3
2002-01-18 09:09:28 51°27.343 2°57.737 80.5 8 77.9 22.6
2002-01-18 09:10:27 51°27.372 2°57.942 81.2 8 78.2 19.9
2002-01-18 09:11:27 51°27.397 2°58.151 81 8 79 18.2
2002-01-18 09:12:27 51°27.422 2°58.36 80.5 8 79.3 15.3
2002-01-18 09:13:27 51°27.447 2°58.568 80.8 8 79.3 16.3
2002-01-18 09:14:27 51°27.471 2°58.776 80.7 7.9 79 16.7
2002-01-18 09:15:27 51°27.495 2°58.983 81 7.9 79.8 17.6
2002-01-18 09:16:27 51°27.518 2°59.191 81.2 7.9 79.8 19.5
2002-01-18 09:17:28 51°27.542 2°59.403 81.2 8 80.4 20.1
2002-01-18 09:18:28 51°27.564 2°59.613 80.7 8 80.7 17.3
2002-01-18 09:19:27 51°27.587 2°59.817 79.7 7.9 79.4 17.9
2002-01-18 09:20:27 51°27.609 3°0.023 77.5 7.8 79 20.1
2002-01-18 09:21:28 51°27.637 3°0.228 77.8 7.8 77.2 20.6
2002-01-18 09:22:27 51°27.663 3°0.428 78.7 7.8 78.4 21.1
2002-01-18 09:23:27 51°27.691 3°0.63 78.2 7.8 78.5 22.5
2002-01-18 09:24:28 51°27.719 3°0.836 78 7.8 78.3 23.2
2002-01-18 09:25:27 51°27.745 3°1.035 77.8 7.7 77.9 22.9
2002-01-18 09:26:27 51°27.772 3°1.236 76.2 7.7 77.5 23.4
2002-01-18 09:27:27 51°27.806 3°1.429 73.7 7 74.4 23.5
2002-01-18 09:28:27 51°27.839 3°1.58 67.5 5.6 67.8 23.6
2002-01-18 09:29:26 51°27.871 3°1.711 76.8 5.3 77.1 23.8
2002-01-18 09:30:28 51°27.893 3°1.85 67.5 5.2 67.8 23.5
2002-01-18 09:31:28 51°27.925 3°1.978 70.8 5.2 70.5 23.7
2002-01-18 09:32:28 51°27.956 3°2.108 71.8 5.2 71.3 23.6
2002-01-18 09:33:28 51°27.979 3°2.242 71.8 5.2 73.4 23.5
2002-01-18 09:34:27 51°28.008 3°2.37 69.2 5.2 69.5 23.4
2002-01-18 09:35:28 51°28.032 3°2.505 82.3 5.3 83.7 23.2
2002-01-18 09:36:28 51°28.037 3°2.647 83 5.3 85.9 23.1
2002-01-18 09:37:28 51°28.065 3°2.777 64 5.3 63.6 22.8
2002-01-18 09:38:28 51°28.094 3°2.913 77.8 5.5 76.7 22.6
2002-01-18 09:39:28 51°28.112 3°3.06 78.2 5.6 78.5 22.5
2002-01-18 09:40:28 51°28.137 3°3.204 72.2 5.6 71.7 22.1
2002-01-18 09:41:28 51°28.168 3°3.316 63.3 3.5 62.4 22
2002-01-18 09:42:28 51°28.188 3°3.376 67.2 2.1 64.8 21.9
2002-01-18 09:43:27 51°28.194 3°3.423 84 1.8 87.3 21.8
2002-01-18 09:44:26 51°28.193 3°3.468 88.3 1.6 96.2 21.6
2002-01-18 09:45:27 51°28.187 3°3.508 93.2 1.5 104.8 21.4
2002-01-18 09:46:28 51°28.179 3°3.546 96 1.5 111.5 21.3
2002-01-18 09:47:26 51°28.169 3°3.582 99.5 1.4 116.8 21
2002-01-18 09:48:28 51°28.157 3°3.612 103.7 1.2 128 20.8
2002-01-18 09:49:28 51°28.145 3°3.632 107.3 0.9 138.7 20.7
2002-01-18 09:50:28 51°28.134 3°3.646 103 0.7 141.7 20.5
2002-01-18 09:51:27 51°28.126 3°3.657 99.7 0.6 141.9 20.4
2002-01-18 09:52:28 51°28.119 3°3.666 96.5 0.5 144.7 20.3
2002-01-18 09:53:27 51°28.111 3°3.673 94.2 0.5 150.3 20.2
2002-01-18 09:54:27 51°28.105 3°3.679 90 0.4 151.5 20.2
2002-01-18 09:55:28 51°28.098 3°3.683 86.7 0.4 156.3 20.1
2002-01-18 09:56:26 51°28.092 3°3.687 81.7 0.4 159.3 20
2002-01-18 09:57:28 51°28.086 3°3.691 76.2 0.3 156.3 20
2002-01-18 09:58:27 51°28.081 3°3.693 71 0.3 161.2 19.9
2002-01-18 09:59:28 51°28.077 3°3.695 65.5 0.2 169.3 19.9
2002-01-18 10:00:26 51°28.074 3°3.696 58.8 0.2 175 19.9
2002-01-18 10:01:28 51°28.072 3°3.695 50.2 0.1 194.5 19.9
2002-01-18 10:02:28 51°28.07 3°3.694 42.7 0.1 221.6 19.9
2002-01-18 10:03:28 51°28.068 3°3.691 36.5 0.2 232.4 19.9
2002-01-18 10:04:28 51°28.067 3°3.687 32 0.2 240.6 19.9
2002-01-18 10:05:27 51°28.065 3°3.681 25 0.3 253.5 19.9
2002-01-18 10:06:28 51°28.063 3°3.674 19.7 0.4 250.8 19.9
2002-01-18 10:07:28 51°28.062 3°3.664 11.8 0.4 254.6 19.9
2002-01-18 10:08:28 51°28.061 3°3.652 5.2 0.5 260.2 19.9
2002-01-18 10:09:28 51°28.06 3°3.639 358.8 0.5 261.2 20
2002-01-18 10:10:28 51°28.058 3°3.623 351.5 0.6 261.2 20.1
2002-01-18 10:11:28 51°28.056 3°3.607 345.5 0.7 257.8 20.1
2002-01-18 10:12:28 51°28.053 3°3.588 337.5 0.7 251.8 20.2
2002-01-18 10:13:27 51°28.048 3°3.57 329.5 0.8 247.9 20.1
2002-01-18 10:14:28 51°28.042 3°3.551 319.8 0.9 241.8 20.2
2002-01-18 10:15:28 51°28.035 3°3.531 310.8 0.8 238.6 20.2
2002-01-18 10:16:28 51°28.028 3°3.513 302.5 0.8 235.8 20.3
2002-01-18 10:17:28 51°28.02 3°3.494 294.2 0.9 233.1 20.3
2002-01-18 10:18:28 51°28.011 3°3.476 286.3 0.8 230.4 20.3
2002-01-18 10:19:28 51°28.003 3°3.459 282.3 0.8 232 20.3
2002-01-18 10:20:28 51°27.994 3°3.441 279.7 0.9 230.7 20.3
2002-01-18 10:21:28 51°27.985 3°3.423 276.8 0.9 228.6 20.4
2002-01-18 10:22:27 51°27.976 3°3.406 274.3 0.8 229.8 20.3
2002-01-18 10:23:27 51°27.968 3°3.391 276.8 0.8 227.7 20.4
2002-01-18 10:24:28 51°27.958 3°3.376 277.8 0.8 221.8 20.2
2002-01-18 10:25:28 51°27.949 3°3.363 280 0.8 219.9 20.2
2002-01-18 10:26:28 51°27.94 3°3.348 284.7 0.8 225.2 20.2
2002-01-18 10:27:28 51°27.931 3°3.334 289.2 0.8 225.2 20.2
2002-01-18 10:28:27 51°27.922 3°3.319 291.5 0.8 225 20.1
2002-01-18 10:29:27 51°27.913 3°3.305 294.3 0.7 226.8 20.2
2002-01-18 10:30:28 51°27.904 3°3.29 297.3 0.7 229.2 20.1
2002-01-18 10:31:28 51°27.895 3°3.276 299.5 0.8 223 20.1
2002-01-18 10:32:28 51°27.886 3°3.261 300.8 0.8 225.7 20.1
2002-01-18 10:33:28 51°27.878 3°3.247 300.2 0.8 224.1 20.1
2002-01-18 10:34:28 51°27.869 3°3.233 299.7 0.9 222.7 20.1
2002-01-18 10:35:28 51°27.859 3°3.218 297.2 0.9 224 20
2002-01-18 10:36:28 51°27.849 3°3.203 294.3 0.8 224.1 20
2002-01-18 10:37:28 51°27.84 3°3.188 293.3 0.8 223.7 20
2002-01-18 10:38:28 51°27.831 3°3.173 292.5 0.8 226.2 19.9
2002-01-18 10:39:28 51°27.821 3°3.158 295.3 0.8 227.7 19.9
2002-01-18 10:40:28 51°27.812 3°3.141 300.7 0.8 230.9 19.9
2002-01-18 10:41:28 51°27.803 3°3.124 305.5 0.9 228.9 19.9
2002-01-18 10:42:28 51°27.794 3°3.108 307.7 0.9 228.7 19.8
2002-01-18 10:43:28 51°27.785 3°3.091 308.8 0.9 230.6 19.7
2002-01-18 10:44:27 51°27.776 3°3.072 308.8 0.9 235.8 19.7
2002-01-18 10:45:27 51°27.767 3°3.051 308.5 1 236.5 19.7
2002-01-18 10:46:27 51°27.758 3°3.03 305.8 1 235.2 19.7
2002-01-18 10:47:28 51°27.748 3°3.006 302.3 1.1 235.5 19.7
2002-01-18 10:48:28 51°27.739 3°2.983 299.7 1.1 235.4 19.6
2002-01-18 10:49:26 51°27.729 3°2.959 299.3 1.1 236 19.5
2002-01-18 10:50:28 51°27.718 3°2.934 299.8 1.1 237.3 19.5
2002-01-18 10:51:28 51°27.707 3°2.909 299.2 1.1 236.7 19.4
2002-01-18 10:52:28 51°27.696 3°2.883 300.7 1.2 236.5 19.4
2002-01-18 10:53:27 51°27.685 3°2.858 302.3 1.2 235.2 19.3
2002-01-18 10:54:28 51°27.674 3°2.832 304.8 1.2 236.9 19.3
2002-01-18 10:55:28 51°27.662 3°2.805 307.3 1.2 236.8 19.1
2002-01-18 10:56:28 51°27.651 3°2.778 311.2 1.2 237.7 19
2002-01-18 10:57:28 51°27.64 3°2.75 314.8 1.2 235.5 19
2002-01-18 10:58:28 51°27.629 3°2.723 317.2 1.3 237.4 18.8
2002-01-18 10:59:28 51°27.617 3°2.695 318.5 1.3 236.1 18.6
2002-01-18 11:00:28 51°27.606 3°2.667 320 1.3 235.6 18.4
2002-01-18 11:01:28 51°27.594 3°2.639 321 1.3 236 18.2
2002-01-18 11:02:28 51°27.581 3°2.61 320.5 1.3 234.2 18
2002-01-18 11:03:28 51°27.568 3°2.579 318 1.4 235.5 18
2002-01-18 11:04:28 51°27.556 3°2.548 316.2 1.4 236.4 17.8
2002-01-18 11:05:28 51°27.541 3°2.517 314.8 1.4 233.7 17.5
2002-01-18 11:06:28 51°27.529 3°2.484 312.2 1.4 233.8 17.4
2002-01-18 11:07:28 51°27.535 3°2.421 325.5 4.5 302.3 18.2
2002-01-18 11:08:28 51°27.644 3°2.415 39.8 8.8 30 21
2002-01-18 11:09:28 51°27.762 3°2.648 60.2 11.8 58.8 21.4
2002-01-18 11:10:28 51°27.868 3°2.922 59 12.2 57.6 21.5
2002-01-18 11:11:28 51°27.967 3°3.21 68.2 12.4 67.3 21.2
2002-01-18 11:12:28 51°28.028 3°3.522 71.3 12.3 72.3 20.4
2002-01-18 11:13:28 51°28.101 3°3.826 69.2 12.3 69.2 19.8
2002-01-18 11:14:28 51°28.168 3°4.137 70.5 12.4 70.7 19.2
2002-01-18 11:15:28 51°28.238 3°4.447 69.7 12.3 69.9 18.6
2002-01-18 11:16:28 51°28.306 3°4.755 69.8 12.4 70.1 17.6
2002-01-18 11:17:28 51°28.371 3°5.07 70.3 12.5 70.4 16.4
2002-01-18 11:18:28 51°28.434 3°5.384 71.8 12.5 72.6 15.9
2002-01-18 11:19:27 51°28.496 3°5.696 72 12.5 72.2 16
2002-01-18 11:20:27 51°28.56 3°6.013 72 12.6 72.3 16.1
2002-01-18 11:21:28 51°28.624 3°6.34 72.2 12.6 72.7 16.1
2002-01-18 11:22:28 51°28.685 3°6.661 72.3 12.5 73.6 15.8
2002-01-18 11:23:28 51°28.748 3°6.98 71.2 12.6 71.9 15.7
2002-01-18 11:24:28 51°28.811 3°7.3 71.8 12.6 72.2 15.9
2002-01-18 11:25:28 51°28.875 3°7.623 71.8 12.7 72.1 15.8
2002-01-18 11:26:28 51°28.941 3°7.942 71 12.6 70.8 15.8
2002-01-18 11:27:28 51°29 3°8.264 73.7 12.7 73.9 15.3
2002-01-18 11:28:28 51°29.052 3°8.59 74.5 12.5 74.9 14.8
2002-01-18 11:29:28 51°29.104 3°8.916 74.8 12.7 75.3 15
2002-01-18 11:30:27 51°29.155 3°9.235 74.2 12.6 74.7 15.3
2002-01-18 11:31:28 51°29.206 3°9.569 75 12.6 76 15.6
2002-01-18 11:32:28 51°29.257 3°9.895 74.8 12.7 76.2 15.3
2002-01-18 11:33:28 51°29.309 3°10.224 75 12.7 75.8 14.9
2002-01-18 11:34:28 51°29.361 3°10.553 74.7 12.8 75.3 14.2
2002-01-18 11:35:28 51°29.413 3°10.881 75.5 12.8 76 13.6
2002-01-18 11:36:28 51°29.465 3°11.207 74.7 12.5 75.7 13.3
2002-01-18 11:37:27 51°29.504 3°11.533 85.2 12.8 87.1 13.3
2002-01-18 11:38:27 51°29.507 3°11.875 85.5 12.8 87.5 12.5
2002-01-18 11:39:28 51°29.518 3°12.221 84.5 12.8 86.7 11.2
2002-01-18 11:40:28 51°29.54 3°12.56 78.7 12.7 81.3 10.6
2002-01-18 11:41:28 51°29.574 3°12.897 79.7 12.9 81.4 10.2
2002-01-18 11:42:28 51°29.604 3°13.239 79.7 13 81.6 9.9
2002-01-18 11:43:28 51°29.635 3°13.58 79.5 13 81.2 9.7
2002-01-18 11:44:28 51°29.664 3°13.926 79.8 13.1 82 9.6
2002-01-18 11:45:28 51°29.695 3°14.273 79.8 13.1 81.8 9.4
2002-01-18 11:46:28 51°29.726 3°14.621 80 13.2 82.3 9.2
2002-01-18 11:47:28 51°29.771 3°14.96 73.2 12.9 75.1 8.8
2002-01-18 11:48:27 51°29.82 3°15.29 75.7 13.1 77.2 8.6
2002-01-18 11:49:28 51°29.897 3°15.616 63.8 12.9 64.8 8.5
2002-01-18 11:50:28 51°29.982 3°15.929 65.8 12.8 66.7 8.3
2002-01-18 11:51:28 51°30.07 3°16.24 64.3 12.8 65.5 8.5
2002-01-18 11:52:28 51°30.168 3°16.543 61.3 12.8 62.9 8.4
2002-01-18 11:53:28 51°30.264 3°16.848 60.5 12.8 62.3 8.4
2002-01-18 11:54:28 51°30.371 3°17.148 60.3 13 61.2 9
2002-01-18 11:55:28 51°30.474 3°17.453 60 13.3 60.9 9
2002-01-18 11:56:28 51°30.582 3°17.754 60.8 13 61.9 8.8
2002-01-18 11:57:28 51°30.688 3°18.059 59.3 13.1 60.3 8.8
2002-01-18 11:58:28 51°30.792 3°18.363 60 13.1 61.1 8.5
2002-01-18 11:59:28 51°30.898 3°18.673 59.5 13.3 60.8 9.2
2002-01-18 12:00:28 51°30.955 3°18.906 70.7 5.8 80.6 10
2002-01-18 12:01:28 51°30.965 3°19.018 71.2 3.5 87.7 10.2
2002-01-18 12:02:28 51°30.954 3°19.086 94.8 1.8 129.8 10.3
2002-01-18 12:03:29 51°30.943 3°19.061 102.3 1.4 243 -999
2002-01-18 12:04:28 51°30.929 3°19.036 93.3 1.2 223 10.2
2002-01-18 12:05:28 51°30.933 3°19.076 34 3.1 51.4 10.3
2002-01-18 12:06:28 51°30.971 3°19.083 345.2 1.6 344.8 10.4
2002-01-18 12:07:28 51°30.987 3°19.067 330.2 0.9 314.8 10.4
2002-01-18 12:08:28 51°30.991 3°19.049 318 0.7 271.6 10.4
2002-01-18 12:09:28 51°30.988 3°19.033 308.3 0.6 237.3 10.4
2002-01-18 12:10:28 51°30.98 3°19.021 300.7 0.7 217.8 10.3
2002-01-18 12:11:28 51°30.97 3°19.013 295.8 0.7 201.6 10.4
2002-01-18 12:12:28 51°30.958 3°19.008 292.2 0.7 192.8 10.3
2002-01-18 12:13:28 51°30.946 3°19.005 290.7 0.7 184.5 10.3
2002-01-18 12:14:28 51°30.933 3°19.003 290.8 0.8 182.3 10.3
2002-01-18 12:15:28 51°30.921 3°19.004 292 0.8 178 10.3
2002-01-18 12:16:28 51°30.909 3°19.006 294 0.8 172.6 10.3
2002-01-18 12:17:28 51°30.896 3°19.009 295 0.8 170.3 10.3
2002-01-18 12:18:28 51°30.884 3°19.013 294.8 0.8 171.9 10.2
2002-01-18 12:19:28 51°30.871 3°19.017 292.3 0.8 164.6 10.1
2002-01-18 12:20:28 51°30.859 3°19.022 296.8 0.7 174.7 10.1
2002-01-18 12:21:28 51°30.851 3°19.02 306.2 0.5 196.2 10.1
2002-01-18 12:22:28 51°30.88 3°18.996 348.7 3.2 346.6 10.1
2002-01-18 12:23:28 51°30.928 3°18.981 354.5 2.6 354.6 10.3
2002-01-18 12:24:28 51°30.96 3°19.006 21.7 1.9 40.1 10.4
2002-01-18 12:25:28 51°30.972 3°19.034 22.8 0.9 79.5 10.5
2002-01-18 12:26:28 51°30.974 3°19.057 18.7 0.9 82.8 10.5
2002-01-18 12:27:28 51°30.975 3°19.077 11.8 0.7 86.7 10.2
2002-01-18 12:28:28 51°30.976 3°19.093 3.7 0.6 89.7 10.6
2002-01-18 12:29:28 51°30.976 3°19.107 354.5 0.4 94.2 10.6
2002-01-18 12:30:28 51°30.973 3°19.117 347 0.4 123.6 10.7
2002-01-18 12:31:28 51°30.967 3°19.126 338.7 0.5 139.2 10.7
2002-01-18 12:32:28 51°30.959 3°19.136 333.7 0.6 143.2 10.7
2002-01-18 12:33:28 51°30.949 3°19.146 329 0.8 147.4 10.7
2002-01-18 12:34:28 51°30.937 3°19.158 325.8 0.8 145.6 10.7
2002-01-18 12:35:28 51°30.925 3°19.17 322.5 0.9 146.3 10.8
2002-01-18 12:36:28 51°30.913 3°19.183 319.3 0.9 147.3 10.8
2002-01-18 12:37:27 51°30.901 3°19.196 314.7 0.9 148.1 10.8
2002-01-18 12:38:28 51°30.889 3°19.209 311.7 0.9 141.6 10.8
2002-01-18 12:39:28 51°30.878 3°19.224 309.7 0.9 141.3 10.8
2002-01-18 12:40:28 51°30.866 3°19.239 308.3 0.9 143.7 10.9
2002-01-18 12:41:28 51°30.854 3°19.252 307.7 0.9 143.9 10.9
2002-01-18 12:42:28 51°30.842 3°19.267 306.8 1 138.7 10.9
2002-01-18 12:43:28 51°30.837 3°19.263 299.7 2.4 284.5 10.8
2002-01-18 12:44:28 51°30.814 3°19.12 247.7 7.2 237.2 10.5
2002-01-18 12:45:28 51°30.712 3°18.956 232.2 10.1 223.8 9.7
2002-01-18 12:46:28 51°30.588 3°18.725 236.8 12.7 229.9 9.2
2002-01-18 12:47:28 51°30.45 3°18.452 237.8 13.3 231.4 8.9
2002-01-18 12:48:28 51°30.312 3°18.17 237.3 13.5 231.1 8.6
2002-01-18 12:49:28 51°30.172 3°17.886 237.5 13.7 231.4 8.8
2002-01-18 12:50:28 51°30.038 3°17.594 240 13.7 233 9
2002-01-18 12:51:28 51°29.902 3°17.303 240 13.7 232.9 8.8
2002-01-18 12:52:28 51°29.765 3°17.011 240.5 13.6 232.9 8.8
2002-01-18 12:53:28 51°29.628 3°16.724 240.2 13.6 232.6 8.6
2002-01-18 12:54:28 51°29.49 3°16.433 239.3 13.7 232.6 8.6
2002-01-18 12:55:28 51°29.354 3°16.142 240.3 13.4 233.4 8.8
2002-01-18 12:56:28 51°29.217 3°15.851 240.7 13.7 233.7 8.6
2002-01-18 12:57:28 51°29.078 3°15.559 240 13.8 233.3 8.9
2002-01-18 12:58:28 51°28.94 3°15.264 239.7 13.8 232.8 9.2
2002-01-18 12:59:28 51°28.807 3°14.966 244 13.8 237 9.5
2002-01-18 13:00:28 51°28.68 3°14.663 242.8 13.7 235.8 9.7
2002-01-18 13:01:28 51°28.552 3°14.36 242.3 13.7 235.3 9.6
2002-01-18 13:02:28 51°28.425 3°14.058 243.2 13.6 236.3 9.4
2002-01-18 13:03:28 51°28.297 3°13.757 243 13.7 235.7 9.2
2002-01-18 13:04:28 51°28.169 3°13.456 242.8 13.7 235.3 9.3
2002-01-18 13:05:28 51°28.041 3°13.152 243 13.8 235.8 9.3
2002-01-18 13:06:28 51°27.911 3°12.85 243.5 13.8 236.4 9.3
2002-01-18 13:07:28 51°27.791 3°12.541 245.2 13.7 237.6 9.3
2002-01-18 13:08:28 51°27.669 3°12.233 244.7 13.7 237.1 9.1
2002-01-18 13:09:28 51°27.546 3°11.924 244.5 13.7 237.6 9.1
2002-01-18 13:10:28 51°27.423 3°11.614 245 13.8 237.4 9.2
2002-01-18 13:11:28 51°27.298 3°11.304 244.7 13.8 237.2 9.5
2002-01-18 13:12:28 51°27.175 3°10.993 244.7 13.9 236.8 9.8
2002-01-18 13:13:28 51°27.05 3°10.683 245.2 13.9 237.4 10
2002-01-18 13:14:28 51°26.926 3°10.372 245 13.8 237.5 10.4
2002-01-18 13:15:28 51°26.802 3°10.06 244.7 13.9 237.3 10.5
2002-01-18 13:16:28 51°26.678 3°9.75 244.7 13.8 237.6 10.7
2002-01-18 13:17:28 51°26.555 3°9.439 245.2 13.8 237.3 10.8
2002-01-18 13:18:28 51°26.432 3°9.131 244.7 13.8 237.5 10.5
2002-01-18 13:19:28 51°26.308 3°8.82 244.5 13.9 237 10.5
2002-01-18 13:20:28 51°26.184 3°8.509 244.8 13.8 237.9 10.4
2002-01-18 13:21:28 51°26.063 3°8.198 245.2 13.8 238.2 10.4
2002-01-18 13:22:28 51°25.939 3°7.888 242 13.7 234.5 10.4
2002-01-18 13:23:28 51°25.741 3°7.708 204.2 14.2 199 10.3
2002-01-18 13:24:28 51°25.519 3°7.58 204.3 14.2 199.7 10
2002-01-18 13:25:28 51°25.297 3°7.452 205 14.2 199.9 9.8
2002-01-18 13:26:28 51°25.074 3°7.334 202.7 14.3 197.7 9.9
2002-01-18 13:27:28 51°24.848 3°7.217 203 14.3 198.2 11.4
2002-01-18 13:28:28 51°24.624 3°7.106 202.7 14 197.4 12.2
2002-01-18 13:29:28 51°24.403 3°6.992 202.8 13.9 197.4 12.9
2002-01-18 13:30:28 51°24.182 3°6.881 202.5 13.9 196.9 17.5
2002-01-18 13:31:28 51°23.964 3°6.774 202.7 13.5 197.2 19.6
2002-01-18 13:32:28 51°23.75 3°6.673 203 13.5 196.6 19
2002-01-18 13:33:28 51°23.535 3°6.575 203 13.5 195.9 14.5
2002-01-18 13:34:28 51°23.319 3°6.474 202.2 13.5 195.7 13.5
2002-01-18 13:35:28 51°23.104 3°6.373 202.8 13.5 196.1 13.1
2002-01-18 13:36:28 51°22.889 3°6.274 202.7 13.4 196.1 13
2002-01-18 13:37:28 51°22.676 3°6.168 202.8 13.4 196.8 13.3
2002-01-18 13:38:28 51°22.465 3°6.064 202.5 13.3 197.3 13.5
2002-01-18 13:39:28 51°22.265 3°5.929 214.7 13 209.2 13.5
2002-01-18 13:40:27 51°22.113 3°5.697 232.3 12.8 229 13.3
2002-01-18 13:41:28 51°21.964 3°5.442 228.7 12.9 225.2 13.1
2002-01-18 13:42:28 51°21.825 3°5.182 236.7 12.9 234.3 12.9
2002-01-18 13:43:28 51°21.696 3°4.909 235 12.9 231.7 12.6
2002-01-18 13:44:28 51°21.564 3°4.638 235 12.9 232 12.3
2002-01-18 13:45:28 51°21.432 3°4.366 234.5 12.9 231.7 12
2002-01-18 13:46:28 51°21.315 3°4.08 243.2 12.9 240.4 11.9
2002-01-18 13:47:28 51°21.22 3°3.778 245.5 12.7 242.7 11.8
2002-01-18 13:48:28 51°21.129 3°3.476 249 12.6 246.6 11.8
2002-01-18 13:49:28 51°21.045 3°3.17 247.5 12.6 245.5 11.7
2002-01-18 13:50:28 51°20.959 3°2.864 247.8 12.5 245.4 11.8
2002-01-18 13:51:28 51°20.874 3°2.562 247.2 12.4 245.4 11.8
2002-01-18 13:52:27 51°20.792 3°2.266 247.8 12.3 245.8 11.7
2002-01-18 13:53:28 51°20.707 3°1.961 248 12.3 246.1 11.8
2002-01-18 13:54:28 51°20.624 3°1.662 249 12.3 246.9 11.7
2002-01-18 13:55:28 51°20.549 3°1.359 250 12.2 247.7 11.8
2002-01-18 13:56:28 51°20.473 3°1.055 250.3 12.3 248.3 11.9
2002-01-18 13:57:28 51°20.397 3°0.752 249.8 12.3 248 11.8
2002-01-18 13:58:28 51°20.32 3°0.449 249.5 12.3 247.9 11.9
2002-01-18 13:59:28 51°20.244 3°0.145 250 12.4 248.2 11.9
2002-01-18 14:00:28 51°20.169 2°59.839 249.5 12.4 248.5 11.9
2002-01-18 14:01:28 51°20.093 2°59.532 249.8 12.4 248.8 12
2002-01-18 14:02:28 51°20.019 2°59.224 249.5 12.5 248.4 12.2
2002-01-18 14:03:28 51°19.944 2°58.915 250.3 12.5 248.8 12.3
2002-01-18 14:04:28 51°19.869 2°58.606 250 12.4 248.7 12.2
2002-01-18 14:05:28 51°19.796 2°58.298 249.3 12.4 248.6 12.5
2002-01-18 14:06:28 51°19.722 2°57.991 249.8 12.4 249 12.6
2002-01-18 14:07:28 51°19.649 2°57.683 249.8 12.4 249.2 12.8
2002-01-18 14:08:28 51°19.572 2°57.377 247.7 12.4 246.6 12.8
2002-01-18 14:09:28 51°19.49 2°57.076 247.8 12.3 246.9 12.9
2002-01-18 14:10:28 51°19.409 2°56.775 247.8 12.4 246.8 13
2002-01-18 14:11:28 51°19.329 2°56.472 247.7 12.3 246.7 13.1
2002-01-18 14:12:28 51°19.248 2°56.17 248.3 12.3 247 13.2
2002-01-18 14:13:28 51°19.165 2°55.868 247.5 12.4 246.1 13.5
2002-01-18 14:14:28 51°19.083 2°55.566 247.5 12.3 246 13.5
2002-01-18 14:15:28 51°19.002 2°55.262 249.5 12.4 248.6 13.6
2002-01-18 14:16:28 51°18.924 2°54.958 248.5 12.4 247.2 13.7
2002-01-18 14:17:28 51°18.846 2°54.656 248.3 12.3 247.6 13.8
2002-01-18 14:18:28 51°18.769 2°54.353 248.7 12.3 247.6 13.9
2002-01-18 14:19:28 51°18.691 2°54.051 249 12.2 247.6 13.8
2002-01-18 14:20:28 51°18.614 2°53.749 248.7 12.3 247.8 13.9
2002-01-18 14:21:28 51°18.537 2°53.445 248.8 12.3 248.1 14
2002-01-18 14:22:28 51°18.461 2°53.143 248.7 12.2 247.4 13.9
2002-01-18 14:23:28 51°18.385 2°52.84 248.8 12.3 247.9 13.9
2002-01-18 14:24:28 51°18.309 2°52.537 248.8 12.3 247.9 13.8
2002-01-18 14:25:28 51°18.182 2°52.3 212.8 12.1 208.2 13.7
2002-01-18 14:26:28 51°17.98 2°52.263 181.2 12.7 173.9 13.4
2002-01-18 14:27:28 51°17.769 2°52.319 178.5 12.9 171.4 13.3
2002-01-18 14:28:28 51°17.558 2°52.371 178.2 12.9 170.6 13.2
2002-01-18 14:29:28 51°17.351 2°52.477 164.5 13.3 156 13
2002-01-18 14:30:28 51°17.151 2°52.628 162 13.3 153.6 12.4
2002-01-18 14:31:28 51°16.953 2°52.796 160 13.5 151.7 12.5
2002-01-18 14:32:28 51°16.755 2°52.968 159.3 13.7 150.8 13.8
2002-01-18 14:33:28 51°16.559 2°53.148 161 13.5 151 14.8
2002-01-18 14:34:28 51°16.368 2°53.329 158 13.5 148 15.1
2002-01-18 14:35:28 51°16.176 2°53.51 159.8 13.3 150 14.9
2002-01-18 14:36:28 51°15.982 2°53.682 159.5 13.4 150.3 14.5
2002-01-18 14:37:28 51°15.788 2°53.856 161 13.3 150.9 13.9
2002-01-18 14:38:28 51°15.595 2°54.028 162.5 13.3 152.8 13.2
2002-01-18 14:39:28 51°15.398 2°54.179 163.7 13.1 155 12.4
2002-01-18 14:40:28 51°15.201 2°54.322 164.2 13.1 155.8 11.7
2002-01-18 14:41:28 51°15.005 2°54.48 163 13.1 153 11.4
2002-01-18 14:42:28 51°14.814 2°54.648 162.3 12.8 151.5 12.2
2002-01-18 14:43:28 51°14.634 2°54.809 161.8 12.3 150.9 12.2
2002-01-18 14:44:28 51°14.454 2°54.97 159.3 12.6 147.6 12.6
2002-01-18 14:45:28 51°14.306 2°55.172 129.5 10.2 128.2 13.4
2002-01-18 14:46:27 51°14.205 2°55.343 144.3 8.6 141.3 13.3
2002-01-18 14:47:27 51°14.1 2°55.434 159.2 6 156 13.2
2002-01-18 14:48:27 51°14.014 2°55.494 158.3 6.3 155.8 13
2002-01-18 14:49:28 51°13.886 2°55.585 158 9.3 155.5 12.6
2002-01-18 14:50:27 51°13.782 2°55.676 143.5 5.5 142.8 12.7
2002-01-18 14:51:28 51°13.733 2°55.758 130.3 3.6 128.4 13
2002-01-18 14:52:27 51°13.706 2°55.821 124 2.5 121 12
2002-01-18 14:53:27 51°13.691 2°55.883 107 2.4 102.8 10.9
2002-01-18 14:54:28 51°13.686 2°55.91 129.5 0.3 148.1 10.1
2002-01-18 14:55:28 51°13.686 2°55.903 134.3 0.4 302.7 -999
2002-01-18 14:56:28 51°13.689 2°55.899 138.3 0.3 118.9 -999
2002-01-18 14:57:29 51°13.688 2°55.905 131.3 0.1 62 -999
2002-01-18 14:58:28 51°13.687 2°55.903 135.3 0.2 131.9 -999